Αρχική σελίδα
METAR-TAF:

METAR-TAF

Αεροδρόμια :

Tri-City Airport

Parsons, Κάνσας, Ηνωμένες Πολιτείες Αμερικής

γεωγραφικό πλάτος: 37-19-40N, γεωγραφικό μήκος: 095-30-15W, υψόμετρο: 274 μ

Παρών καιρός

Η αναφορά έγινε 1 ώρα και 5 λεπτά πριν, στις 15:52 UTC
Άνεμος 8 kt από Β/BΔ με ριπές μέχρι 19 kt, μεταβλητός μεταξύ Δ/BΔ και Β
Θερμοκρασία -4°C
Υγρασία 74%
Πίεση 1033 hPa
Ορατότητα: 16.1 χλμ
Λίγα νέφη σε ύψος 1500 πόδια

METAR: KPPF 181552Z AUTO 33008G19KT 300V360 10SM FEW015 M04/M08 A3049 RMK AO2 SLP336 T10441083

Χρόνος: 10:57 (16:57 UTC)


TAF: λείπει

Μετεωρολογικές αναφορές και προγνώσεις για περισσότερα από 4000 αεροδρόμια (δελτία METAR και TAF).

Οι διαθέσιμοι σταθμοί απεικονίζονται στο χάρτη με κίτρινες και κόκκινες κουκκίδες.

Μετακινήστε το ποντίκι πάνω από τις κουκκίδες για να δείτε το όνομα του σταθμού.

Στη συνέχεια, κάντε κλικ για να δείτε τις μετεωρολογικές αναφορές και τις προγνώσεις καιρού.

Για να αλλάξετε το χάρτη: κάντε κλικ στα πράσινα κουμπιά με τον μαύρο σταυρό για να ζουμάρετε, στο πράσινο κουμπί με την παύλα για να αφαιρέσετε το ζουμ ή στα πράσινα βέλη για να αντιπαραβάλλετε χάρτες.


METAR-TAF: